CheckWX is a tool to help pilots better visualize weather data.  It is not intended as a substitute for an official pre-flight weather briefing.

04:18:25 UTC

1M4 METAR
Posey Field Airport
Haleyville, Alabama, USA
Current

22 mins ago

K1M4 270356Z AUTO 27004KT 10SM VCTS CLR 25/21 A3022 RMK AO2 LTG DSNT ALQDS TSB40E53B55 SLP600 T02500206
Observed
Jun-27 @ 03:56 UTC
Wind
  • 270° at 4 KTS
Visibility
10 SM
Flight Rules
VFR
Conditions
Area Thunderstorm
Cloud Levels
  • Clear skies
Temperature
25°C / 77°F
Dewpoint
21°C / 70°F
Humidity
79%
Altimeter
30.22" Hg
Pressure
1023.42 hPa
Previous

1 hour ago

K1M4 270256Z AUTO 00000KT 10SM CLR 24/22 A3023 RMK AO2 LTG DSNT E AND W SLP615 T02440217 53019
Observed
Jun-27 @ 02:56 UTC
Visibility
10 SM
Flight Rules
VFR
Cloud Levels
  • Clear skies
Temperature
24°C / 75°F
Dewpoint
22°C / 72°F
Humidity
89%
Altimeter
30.23" Hg
Pressure
1023.72 hPa
Previous

2 hours ago

K1M4 270156Z AUTO 00000KT 10SM SCT048 26/22 A3021 RMK AO2 LTG DSNT E AND SE SLP612 T02560217
Observed
Jun-27 @ 01:56 UTC
Visibility
10 SM
Flight Rules
VFR
Cloud Levels
  • Scattered at 4,800' AGL
Temperature
26°C / 79°F
Dewpoint
22°C / 72°F
Humidity
79%
Altimeter
30.21" Hg
Pressure
1023.02 hPa